createdAt,value
2022-09-24T00:00:06.248Z,50.80
2022-09-24T00:01:15.837Z,50.80
2022-09-24T00:02:22.975Z,50.90
2022-09-24T00:03:30.469Z,50.90
2022-09-24T00:04:35.773Z,50.80
2022-09-24T00:05:40.822Z,50.80
2022-09-24T00:06:45.624Z,50.80
2022-09-24T00:07:49.274Z,50.80
2022-09-24T00:08:56.215Z,50.80
2022-09-24T00:10:02.636Z,50.80
2022-09-24T00:11:08.461Z,50.90
2022-09-24T00:12:13.418Z,50.90
2022-09-24T00:13:19.534Z,50.90
2022-09-24T00:14:24.247Z,51.00
2022-09-24T00:15:27.089Z,51.00
2022-09-24T00:16:34.078Z,50.90
2022-09-24T00:17:37.439Z,50.90
2022-09-24T00:18:42.636Z,50.90
2022-09-24T00:19:48.130Z,50.90
2022-09-24T00:20:54.852Z,50.90
2022-09-24T00:21:57.630Z,50.90
2022-09-24T00:23:00.932Z,50.90
2022-09-24T00:24:06.934Z,50.90
2022-09-24T00:25:32.315Z,50.90
2022-09-24T00:26:51.473Z,51.00
2022-09-24T00:27:57.239Z,51.00
2022-09-24T00:29:02.311Z,51.00
2022-09-24T00:30:07.831Z,50.90
2022-09-24T00:31:11.515Z,50.90
2022-09-24T00:32:16.030Z,51.00
2022-09-24T00:33:21.163Z,51.00
2022-09-24T00:34:24.572Z,51.00
2022-09-24T00:35:31.284Z,51.00
2022-09-24T00:36:34.102Z,51.00
2022-09-24T00:37:38.498Z,51.00
2022-09-24T00:39:00.080Z,51.00
2022-09-24T00:40:02.773Z,51.00
2022-09-24T00:41:09.714Z,51.00
2022-09-24T00:42:13.962Z,51.00
2022-09-24T00:43:26.854Z,51.00
2022-09-24T00:44:41.652Z,51.00
2022-09-24T00:45:44.565Z,51.00
2022-09-24T00:46:47.328Z,51.00
2022-09-24T00:47:52.839Z,51.00
2022-09-24T00:49:07.026Z,51.10
2022-09-24T00:50:30.212Z,51.00
2022-09-24T00:51:35.054Z,51.10
2022-09-24T00:53:09.855Z,51.10
2022-09-24T00:54:24.964Z,51.10
2022-09-24T00:55:29.065Z,51.10
2022-09-24T00:56:36.586Z,51.00
2022-09-24T00:57:41.795Z,51.10
2022-09-24T00:58:52.374Z,51.10
2022-09-24T00:59:59.944Z,51.10
2022-09-24T01:01:07.350Z,51.10
2022-09-24T01:02:10.189Z,51.10
2022-09-24T01:03:16.947Z,51.10
2022-09-24T01:04:22.572Z,51.10
2022-09-24T01:05:25.522Z,51.10
2022-09-24T01:06:30.060Z,51.10
2022-09-24T01:07:35.502Z,51.10
2022-09-24T01:08:40.296Z,51.20
2022-09-24T01:09:47.542Z,51.20
2022-09-24T01:11:11.824Z,51.20
2022-09-24T01:12:35.665Z,51.20
2022-09-24T01:14:11.812Z,51.10
2022-09-24T01:15:37.758Z,51.30
2022-09-24T01:16:47.014Z,51.20
2022-09-24T01:18:19.419Z,51.70
2022-09-24T01:19:41.957Z,51.30
2022-09-24T01:21:07.289Z,51.40
2022-09-24T01:22:42.906Z,51.30
2022-09-24T01:23:57.978Z,51.40
2022-09-24T01:25:35.320Z,51.30
2022-09-24T01:26:51.263Z,51.30
2022-09-24T01:28:26.240Z,51.30
2022-09-24T01:29:37.593Z,51.40
2022-09-24T01:30:43.200Z,51.30
2022-09-24T01:31:56.126Z,51.40
2022-09-24T01:33:03.332Z,51.40
2022-09-24T01:34:19.269Z,51.40
2022-09-24T01:35:33.968Z,51.40
2022-09-24T01:36:39.814Z,51.40
2022-09-24T01:37:49.289Z,51.40
2022-09-24T01:38:57.856Z,51.50
2022-09-24T01:40:02.238Z,51.50
2022-09-24T01:41:09.117Z,51.50
2022-09-24T01:42:30.480Z,51.50
2022-09-24T01:43:34.923Z,51.50
2022-09-24T01:44:58.333Z,51.60
2022-09-24T01:46:07.028Z,51.60
2022-09-24T01:47:16.364Z,51.60
2022-09-24T01:48:21.841Z,51.60
2022-09-24T01:49:24.797Z,51.60
2022-09-24T01:51:02.756Z,51.60
2022-09-24T01:52:10.640Z,51.70
2022-09-24T01:53:33.096Z,52.20
2022-09-24T01:54:42.777Z,51.70
2022-09-24T01:55:59.031Z,51.70
2022-09-24T01:57:19.888Z,51.70
2022-09-24T01:58:37.400Z,51.70
2022-09-24T01:59:49.792Z,51.70
2022-09-24T02:01:01.068Z,51.80
2022-09-24T02:02:23.933Z,51.80
2022-09-24T02:03:31.261Z,51.70
2022-09-24T02:04:42.881Z,51.80
2022-09-24T02:05:58.158Z,51.80
2022-09-24T02:07:08.889Z,51.90
2022-09-24T02:08:22.161Z,51.90
2022-09-24T02:09:37.570Z,51.90
2022-09-24T02:10:48.389Z,51.90
2022-09-24T02:11:53.791Z,51.90
2022-09-24T02:13:19.998Z,51.90
2022-09-24T02:14:25.222Z,52.00
2022-09-24T02:15:41.116Z,52.00
2022-09-24T02:17:05.171Z,52.00
2022-09-24T02:18:18.150Z,52.00
2022-09-24T02:19:27.959Z,52.00
2022-09-24T02:20:34.685Z,52.00
2022-09-24T02:21:40.028Z,52.10
2022-09-24T02:22:46.771Z,52.00
2022-09-24T02:23:57.572Z,52.10
2022-09-24T02:25:06.089Z,52.10
2022-09-24T02:26:14.153Z,52.10
2022-09-24T02:27:18.555Z,52.10
2022-09-24T02:28:26.275Z,52.00
2022-09-24T02:29:29.936Z,52.10
2022-09-24T02:30:39.397Z,52.20
2022-09-24T02:31:52.956Z,52.20
2022-09-24T02:32:57.759Z,52.20
2022-09-24T02:34:21.789Z,52.30
2022-09-24T02:35:32.608Z,52.30
2022-09-24T02:36:35.999Z,52.20
2022-09-24T02:37:44.854Z,52.30
2022-09-24T02:38:47.544Z,52.30
2022-09-24T02:39:52.301Z,52.30
2022-09-24T02:40:56.792Z,52.30
2022-09-24T02:42:02.108Z,52.20
2022-09-24T02:43:05.599Z,52.30
2022-09-24T02:44:09.207Z,52.30
2022-09-24T02:45:12.452Z,52.40
2022-09-24T02:46:16.089Z,52.40
2022-09-24T02:47:19.223Z,52.40
2022-09-24T02:48:23.620Z,52.40
2022-09-24T02:49:28.840Z,52.40
2022-09-24T02:50:31.965Z,52.40
2022-09-24T02:51:34.946Z,52.40
2022-09-24T02:52:38.951Z,52.50
2022-09-24T02:53:41.943Z,52.40
2022-09-24T02:54:46.567Z,52.40
2022-09-24T02:55:49.493Z,52.50
2022-09-24T02:56:53.711Z,52.40
2022-09-24T02:57:59.142Z,52.50
2022-09-24T02:59:03.382Z,52.50
2022-09-24T03:00:08.925Z,52.60
2022-09-24T03:01:13.818Z,52.60
2022-09-24T03:02:18.719Z,52.60
2022-09-24T03:03:23.122Z,52.60
2022-09-24T03:04:27.356Z,52.60
2022-09-24T03:05:32.844Z,52.60
2022-09-24T03:06:37.875Z,52.60
2022-09-24T03:07:45.048Z,52.60
2022-09-24T03:08:50.758Z,52.60
2022-09-24T03:09:54.327Z,52.70
2022-09-24T03:10:58.622Z,52.60
2022-09-24T03:12:02.256Z,53.30
2022-09-24T03:13:07.927Z,52.80
2022-09-24T03:14:12.843Z,52.70
2022-09-24T03:15:20.306Z,52.70
2022-09-24T03:16:24.901Z,52.80
2022-09-24T03:17:32.161Z,52.70
2022-09-24T03:18:38.183Z,52.70
2022-09-24T03:19:45.951Z,52.70
2022-09-24T03:21:05.172Z,52.80
2022-09-24T03:22:07.946Z,52.90
2022-09-24T03:23:13.092Z,52.80
2022-09-24T03:24:18.586Z,52.80
2022-09-24T03:25:21.272Z,52.80
2022-09-24T03:26:31.055Z,52.90
2022-09-24T03:27:34.006Z,52.90
2022-09-24T03:28:39.151Z,52.90
2022-09-24T03:30:01.725Z,52.90
2022-09-24T03:31:05.099Z,52.90
2022-09-24T03:32:08.125Z,52.90
2022-09-24T03:33:13.926Z,53.00
2022-09-24T03:34:18.202Z,53.00
2022-09-24T03:35:21.941Z,53.10
2022-09-24T03:36:27.299Z,53.00
2022-09-24T03:37:31.389Z,53.00
2022-09-24T03:38:35.392Z,53.10
2022-09-24T03:39:40.803Z,53.00
2022-09-24T03:40:47.909Z,53.00
2022-09-24T03:41:53.492Z,52.90
2022-09-24T03:42:57.508Z,53.00
2022-09-24T03:44:00.245Z,53.10
2022-09-24T03:45:07.000Z,53.10
2022-09-24T03:46:15.848Z,53.10
2022-09-24T03:47:19.476Z,53.10
2022-09-24T03:48:25.624Z,53.10
2022-09-24T03:49:28.845Z,53.10
2022-09-24T03:50:36.811Z,53.10
2022-09-24T03:51:39.346Z,53.10
2022-09-24T03:52:47.294Z,53.10
2022-09-24T03:53:50.805Z,53.10
2022-09-24T03:54:55.306Z,53.10
2022-09-24T03:55:58.957Z,53.10
2022-09-24T03:57:01.466Z,53.10
2022-09-24T03:58:04.008Z,53.20
2022-09-24T03:59:10.221Z,53.10
2022-09-24T04:00:13.959Z,53.30
2022-09-24T04:01:20.607Z,53.20
2022-09-24T04:02:25.971Z,53.20
2022-09-24T04:03:30.808Z,53.20
2022-09-24T04:04:33.839Z,53.20
2022-09-24T04:05:36.898Z,53.20
2022-09-24T04:06:45.713Z,53.20
2022-09-24T04:07:48.311Z,53.20
2022-09-24T04:08:52.190Z,53.20
2022-09-24T04:09:55.343Z,53.30
2022-09-24T04:11:00.817Z,53.30
2022-09-24T04:12:08.585Z,53.30
2022-09-24T04:13:13.238Z,53.30
2022-09-24T04:14:16.204Z,53.40
2022-09-24T04:15:19.776Z,53.40
2022-09-24T04:16:22.563Z,53.30
2022-09-24T04:17:31.377Z,53.30
2022-09-24T04:18:39.246Z,53.40
2022-09-24T04:19:42.221Z,53.40
2022-09-24T04:20:45.440Z,53.30
2022-09-24T04:21:51.984Z,53.40
2022-09-24T04:22:57.430Z,53.30
2022-09-24T04:24:01.759Z,53.40
2022-09-24T04:25:04.738Z,53.40
2022-09-24T04:26:09.102Z,53.40
2022-09-24T04:27:14.202Z,53.40
2022-09-24T04:28:19.697Z,53.40
2022-09-24T04:29:25.188Z,53.50
2022-09-24T04:30:30.027Z,53.40
2022-09-24T04:31:33.387Z,53.50
2022-09-24T04:32:36.291Z,53.50
2022-09-24T04:33:38.857Z,53.50
2022-09-24T04:34:44.050Z,53.50
2022-09-24T04:35:46.603Z,53.40
2022-09-24T04:36:53.362Z,53.50
2022-09-24T04:37:57.789Z,53.50
2022-09-24T04:39:03.781Z,53.50
2022-09-24T04:40:12.573Z,53.50
2022-09-24T04:41:16.640Z,53.60
2022-09-24T04:42:22.405Z,53.60
2022-09-24T04:43:25.630Z,53.60
2022-09-24T04:44:30.153Z,53.70
2022-09-24T04:45:36.220Z,53.60
2022-09-24T04:46:42.799Z,53.60
2022-09-24T04:47:54.470Z,53.60
2022-09-24T04:48:57.500Z,53.60
2022-09-24T04:50:03.735Z,53.60
2022-09-24T04:51:10.105Z,53.70
2022-09-24T04:52:16.724Z,53.70
2022-09-24T04:53:19.606Z,53.70
2022-09-24T04:54:22.428Z,53.60
2022-09-24T04:55:28.834Z,53.60
2022-09-24T04:56:33.538Z,53.60
2022-09-24T04:57:36.561Z,53.70
2022-09-24T04:58:41.170Z,53.70
2022-09-24T04:59:45.611Z,53.70
2022-09-24T05:00:48.523Z,53.70
2022-09-24T05:01:51.178Z,53.70
2022-09-24T05:03:03.684Z,53.70
2022-09-24T05:04:09.806Z,53.70
2022-09-24T05:05:15.745Z,53.70
2022-09-24T05:06:24.971Z,53.70
2022-09-24T05:07:29.901Z,53.70
2022-09-24T05:08:34.352Z,53.70
2022-09-24T05:09:38.658Z,53.80
2022-09-24T05:10:41.836Z,53.70
2022-09-24T05:11:46.413Z,53.70
2022-09-24T05:12:49.328Z,53.70
2022-09-24T05:13:53.735Z,53.80
2022-09-24T05:14:56.605Z,53.80
2022-09-24T05:16:02.111Z,53.80
2022-09-24T05:17:18.909Z,53.80
2022-09-24T05:18:23.046Z,53.90
2022-09-24T05:19:27.176Z,53.90
2022-09-24T05:20:30.451Z,53.80
2022-09-24T05:21:33.573Z,53.80
2022-09-24T05:22:37.489Z,53.80
2022-09-24T05:23:41.370Z,53.90
2022-09-24T05:24:44.278Z,53.80
2022-09-24T05:26:06.949Z,53.80
2022-09-24T05:27:10.431Z,53.80
2022-09-24T05:28:13.471Z,53.80
2022-09-24T05:29:16.404Z,53.90
2022-09-24T05:30:21.977Z,53.80
2022-09-24T05:31:26.952Z,53.90
2022-09-24T05:32:32.077Z,53.80
2022-09-24T05:33:37.001Z,53.90
2022-09-24T05:34:46.040Z,53.90
2022-09-24T05:35:59.112Z,54.00
2022-09-24T05:37:03.378Z,54.00
2022-09-24T05:38:07.940Z,53.90
2022-09-24T05:39:11.935Z,53.90
2022-09-24T05:40:36.316Z,53.90
2022-09-24T05:41:43.852Z,54.00
2022-09-24T05:42:49.166Z,54.00
2022-09-24T05:43:59.647Z,54.00
2022-09-24T05:45:04.673Z,54.00
2022-09-24T05:46:10.454Z,54.00
2022-09-24T05:47:14.410Z,54.00
2022-09-24T05:48:18.733Z,54.00
2022-09-24T05:49:22.429Z,54.00
2022-09-24T05:50:26.534Z,54.10
2022-09-24T05:51:29.265Z,54.10
2022-09-24T05:52:33.015Z,54.00
2022-09-24T05:53:35.876Z,54.10
2022-09-24T05:54:38.793Z,54.10
2022-09-24T05:55:43.249Z,54.00
2022-09-24T05:56:48.729Z,54.10
2022-09-24T05:57:52.302Z,54.20
2022-09-24T05:58:55.436Z,54.10
2022-09-24T05:59:59.629Z,54.20
2022-09-24T06:01:03.856Z,54.10
2022-09-24T06:02:09.709Z,54.20
2022-09-24T06:03:16.739Z,54.10
2022-09-24T06:04:22.416Z,54.10
2022-09-24T06:05:25.995Z,54.10
2022-09-24T06:06:33.058Z,54.20
2022-09-24T06:07:38.286Z,54.10
2022-09-24T06:08:41.932Z,54.10
2022-09-24T06:09:47.825Z,54.10
2022-09-24T06:10:53.286Z,54.20
2022-09-24T06:11:57.018Z,54.20
2022-09-24T06:13:01.033Z,54.20
2022-09-24T06:14:04.741Z,54.20
2022-09-24T06:15:09.289Z,54.20
2022-09-24T06:16:15.215Z,54.20
2022-09-24T06:17:20.853Z,54.30
2022-09-24T06:18:28.206Z,54.20
2022-09-24T06:19:31.263Z,54.30
2022-09-24T06:20:34.489Z,54.20
2022-09-24T06:21:38.636Z,54.30
2022-09-24T06:22:41.499Z,54.30
2022-09-24T06:23:48.089Z,54.30
2022-09-24T06:24:52.160Z,54.30
2022-09-24T06:26:11.739Z,54.30
2022-09-24T06:27:15.577Z,54.30
2022-09-24T06:28:22.512Z,54.30
2022-09-24T06:29:27.470Z,54.40
2022-09-24T06:30:40.035Z,54.90
2022-09-24T06:31:42.936Z,54.30
2022-09-24T06:32:51.201Z,54.30
2022-09-24T06:33:54.086Z,54.30
2022-09-24T06:34:59.393Z,54.40
2022-09-24T06:36:03.669Z,54.40
2022-09-24T06:37:07.372Z,54.40
2022-09-24T06:38:17.441Z,54.40
2022-09-24T06:39:20.008Z,54.30
2022-09-24T06:40:31.358Z,54.40
2022-09-24T06:41:41.676Z,54.40
2022-09-24T06:42:44.980Z,54.40
2022-09-24T06:43:59.586Z,55.00
2022-09-24T06:45:06.303Z,54.40
2022-09-24T06:46:08.920Z,54.40
2022-09-24T06:47:13.533Z,54.40
2022-09-24T06:48:17.803Z,54.40
2022-09-24T06:49:22.334Z,54.40
2022-09-24T06:50:28.788Z,54.40
2022-09-24T06:51:32.620Z,54.40
2022-09-24T06:52:35.321Z,54.50
2022-09-24T06:53:38.529Z,54.50
2022-09-24T06:54:41.316Z,54.40
2022-09-24T06:55:46.954Z,54.50
2022-09-24T06:56:52.603Z,54.60
2022-09-24T06:58:05.185Z,55.20
2022-09-24T06:59:09.205Z,54.50
2022-09-24T07:00:16.204Z,54.50
2022-09-24T07:01:23.297Z,54.50
2022-09-24T07:02:25.945Z,54.60
2022-09-24T07:03:35.176Z,54.60
2022-09-24T07:04:38.048Z,54.60
2022-09-24T07:05:43.622Z,54.70
2022-09-24T07:07:10.308Z,54.70
2022-09-24T07:08:14.285Z,54.60
2022-09-24T07:09:21.606Z,54.70
2022-09-24T07:10:27.414Z,54.70
2022-09-24T07:11:32.045Z,54.70
2022-09-24T07:12:39.342Z,54.70
2022-09-24T07:13:41.869Z,54.70
2022-09-24T07:14:45.310Z,54.70
2022-09-24T07:15:50.069Z,54.80
2022-09-24T07:16:54.983Z,54.70
2022-09-24T07:17:59.216Z,54.80
2022-09-24T07:19:05.723Z,54.70
2022-09-24T07:20:10.139Z,54.80
2022-09-24T07:21:12.930Z,54.80
2022-09-24T07:22:16.873Z,54.80
2022-09-24T07:24:37.615Z,54.90
2022-09-24T07:25:42.059Z,54.90
2022-09-24T07:26:48.686Z,54.80
2022-09-24T07:27:54.884Z,54.90
2022-09-24T07:29:04.302Z,54.90
2022-09-24T07:30:09.586Z,55.00
2022-09-24T07:31:16.662Z,55.00
2022-09-24T07:32:19.485Z,54.90
2022-09-24T07:33:23.392Z,55.00
2022-09-24T07:34:27.230Z,55.00
2022-09-24T07:35:30.131Z,55.00
2022-09-24T07:36:34.232Z,55.00
2022-09-24T07:37:37.114Z,55.00
2022-09-24T07:38:39.959Z,55.00
2022-09-24T07:39:45.567Z,55.00
2022-09-24T07:40:49.051Z,55.00
2022-09-24T07:41:53.789Z,55.10
2022-09-24T07:42:56.924Z,55.00
2022-09-24T07:44:02.572Z,55.00
2022-09-24T07:45:05.542Z,55.10
2022-09-24T07:46:08.478Z,55.10
2022-09-24T07:47:15.650Z,55.10
2022-09-24T07:48:19.143Z,55.10
2022-09-24T07:49:23.107Z,55.10
2022-09-24T07:50:27.555Z,55.10
2022-09-24T07:51:30.426Z,55.10
2022-09-24T07:52:33.300Z,55.10
2022-09-24T07:53:38.137Z,55.20
2022-09-24T07:54:41.259Z,55.10
2022-09-24T07:55:44.080Z,55.10
2022-09-24T07:56:49.890Z,55.20
2022-09-24T07:57:54.554Z,55.20
2022-09-24T07:58:57.025Z,55.20
2022-09-24T08:00:00.474Z,55.10
2022-09-24T08:01:03.915Z,55.10
2022-09-24T08:02:18.848Z,55.10
2022-09-24T08:03:24.498Z,55.10
2022-09-24T08:04:43.094Z,55.10
2022-09-24T08:05:45.943Z,55.20
2022-09-24T08:06:48.573Z,55.20
2022-09-24T08:07:53.315Z,55.20
2022-09-24T08:08:56.533Z,55.20
2022-09-24T08:10:01.524Z,55.20
2022-09-24T08:11:08.887Z,55.20
2022-09-24T08:12:13.131Z,55.20
2022-09-24T08:13:17.653Z,55.20
2022-09-24T08:14:21.788Z,55.20
2022-09-24T08:15:26.232Z,55.20
2022-09-24T08:16:32.679Z,55.20
2022-09-24T08:17:40.351Z,55.30
2022-09-24T08:18:43.751Z,55.30
2022-09-24T08:19:49.214Z,55.30
2022-09-24T08:20:53.390Z,55.30
2022-09-24T08:21:58.309Z,55.20
2022-09-24T08:23:20.979Z,55.30
2022-09-24T08:24:24.502Z,55.30
2022-09-24T08:25:27.459Z,55.30
2022-09-24T08:26:48.147Z,55.30
2022-09-24T08:27:52.649Z,55.30
2022-09-24T08:28:55.112Z,55.30
2022-09-24T08:29:57.996Z,55.40
2022-09-24T08:31:03.722Z,55.30
2022-09-24T08:32:26.273Z,55.30
2022-09-24T08:33:33.427Z,55.40
2022-09-24T08:34:40.509Z,55.30
2022-09-24T08:35:43.387Z,55.40
2022-09-24T08:36:47.330Z,55.40
2022-09-24T08:37:50.074Z,55.40
2022-09-24T08:38:56.132Z,55.40
2022-09-24T08:39:58.783Z,55.40
2022-09-24T08:41:13.695Z,55.50
2022-09-24T08:42:46.820Z,55.40
2022-09-24T08:44:10.633Z,55.50
2022-09-24T08:45:32.686Z,55.50
2022-09-24T08:47:02.446Z,55.50
2022-09-24T08:48:20.308Z,55.50
2022-09-24T08:49:33.726Z,55.50
2022-09-24T08:50:39.660Z,55.40
2022-09-24T08:52:16.500Z,55.50
2022-09-24T08:53:47.548Z,55.60
2022-09-24T08:55:14.006Z,55.70
2022-09-24T08:56:44.943Z,55.50
2022-09-24T08:57:59.345Z,55.50
2022-09-24T08:59:23.672Z,55.60
2022-09-24T09:00:31.999Z,55.60
2022-09-24T09:01:59.604Z,55.50
2022-09-24T09:03:11.054Z,55.60
2022-09-24T09:04:54.320Z,55.60
2022-09-24T09:06:03.706Z,55.60
2022-09-24T09:07:21.499Z,55.60
2022-09-24T09:09:01.221Z,55.60
2022-09-24T09:10:07.927Z,55.90
2022-09-24T09:11:16.113Z,56.20
2022-09-24T09:12:34.685Z,55.60
2022-09-24T09:13:54.239Z,55.60
2022-09-24T09:15:06.999Z,55.70
2022-09-24T09:16:30.661Z,55.70
2022-09-24T09:18:03.195Z,55.70
2022-09-24T09:19:12.319Z,55.70
2022-09-24T09:20:24.588Z,55.70
2022-09-24T09:21:47.239Z,55.70
2022-09-24T09:22:53.303Z,55.70
2022-09-24T09:23:59.496Z,55.70
2022-09-24T09:25:25.824Z,55.80
2022-09-24T09:26:29.024Z,55.90
2022-09-24T09:27:33.889Z,55.80
2022-09-24T09:28:37.988Z,55.80
2022-09-24T09:29:46.368Z,55.80
2022-09-24T09:31:09.549Z,55.80
2022-09-24T09:32:39.162Z,55.80
2022-09-24T09:34:10.788Z,55.80
2022-09-24T09:35:25.610Z,55.80
2022-09-24T09:37:09.121Z,55.90
2022-09-24T09:38:39.037Z,55.90
2022-09-24T09:40:18.606Z,55.90
2022-09-24T09:41:56.343Z,55.90
2022-09-24T09:43:08.393Z,55.90
2022-09-24T09:44:22.193Z,55.90
2022-09-24T09:45:40.840Z,55.90
2022-09-24T09:46:53.952Z,55.90
2022-09-24T09:47:59.114Z,56.00
2022-09-24T09:49:07.484Z,56.00
2022-09-24T09:50:41.119Z,56.00
2022-09-24T09:51:48.740Z,56.10
2022-09-24T09:52:53.585Z,56.10
2022-09-24T09:53:58.624Z,56.10
2022-09-24T09:55:01.693Z,56.00
2022-09-24T09:56:09.100Z,56.00
2022-09-24T09:57:22.754Z,56.10
2022-09-24T09:58:31.903Z,56.10
2022-09-24T09:59:36.590Z,56.10
2022-09-24T10:00:41.475Z,56.10
2022-09-24T10:01:55.942Z,56.10
2022-09-24T10:02:58.895Z,56.20
2022-09-24T10:04:04.624Z,56.20
2022-09-24T10:05:26.299Z,56.10
2022-09-24T10:06:35.056Z,56.20
2022-09-24T10:07:45.287Z,56.20
2022-09-24T10:08:47.974Z,56.20
2022-09-24T10:10:16.617Z,56.20
2022-09-24T10:11:20.703Z,56.20
2022-09-24T10:12:24.665Z,56.20
2022-09-24T10:13:48.913Z,56.20
2022-09-24T10:15:00.113Z,56.20
2022-09-24T10:16:07.224Z,56.20
2022-09-24T10:17:20.850Z,56.20
2022-09-24T10:18:41.464Z,56.20
2022-09-24T10:19:50.711Z,56.20
2022-09-24T10:20:54.548Z,56.20
2022-09-24T10:22:06.971Z,56.20
2022-09-24T10:23:21.347Z,56.30
2022-09-24T10:24:27.061Z,56.20
2022-09-24T10:25:32.888Z,56.20
2022-09-24T10:26:45.700Z,56.30
2022-09-24T10:27:48.721Z,56.20
2022-09-24T10:29:10.952Z,56.20
2022-09-24T10:30:34.944Z,56.30
2022-09-24T10:31:39.572Z,56.30
2022-09-24T10:32:43.699Z,56.30
2022-09-24T10:33:49.441Z,56.30
2022-09-24T10:35:05.323Z,56.30
2022-09-24T10:36:17.419Z,56.30
2022-09-24T10:37:25.888Z,56.30
2022-09-24T10:38:32.912Z,56.30
2022-09-24T10:39:36.217Z,56.40
2022-09-24T10:40:40.590Z,56.40
2022-09-24T10:41:48.126Z,56.40
2022-09-24T10:42:59.938Z,56.40
2022-09-24T10:44:11.496Z,56.40
2022-09-24T10:45:15.873Z,56.40
2022-09-24T10:46:35.344Z,56.40
2022-09-24T10:47:54.764Z,56.50
2022-09-24T10:49:10.215Z,56.50
2022-09-24T10:50:27.423Z,56.50
2022-09-24T10:51:57.806Z,56.50
2022-09-24T10:53:24.418Z,56.50
2022-09-24T10:54:37.231Z,56.50
2022-09-24T10:56:12.980Z,56.50
2022-09-24T10:57:43.413Z,56.60
2022-09-24T10:59:07.706Z,56.50
2022-09-24T11:00:21.579Z,56.60
2022-09-24T11:02:05.076Z,56.60
2022-09-24T11:03:14.030Z,56.60
2022-09-24T11:04:28.342Z,56.60
2022-09-24T11:05:43.359Z,56.60
2022-09-24T11:07:20.134Z,57.20
2022-09-24T11:08:40.040Z,56.60
2022-09-24T11:10:10.440Z,56.60
2022-09-24T11:13:07.873Z,56.60
2022-09-24T11:14:17.984Z,56.70
2022-09-24T11:15:51.182Z,56.60
2022-09-24T11:17:18.910Z,56.70
2022-09-24T11:18:41.275Z,56.70
2022-09-24T11:20:32.153Z,56.70
2022-09-24T11:22:22.439Z,56.70
2022-09-24T11:23:44.567Z,56.70
2022-09-24T11:25:24.804Z,56.70
2022-09-24T11:26:55.113Z,56.80
2022-09-24T11:28:12.459Z,56.80
2022-09-24T11:29:31.108Z,56.70
2022-09-24T11:30:55.068Z,56.80
2022-09-24T11:32:19.774Z,56.70
2022-09-24T11:33:59.738Z,56.90
2022-09-24T11:35:43.611Z,56.80
2022-09-24T11:36:55.817Z,56.70
2022-09-24T11:38:10.405Z,56.80
2022-09-24T11:39:44.592Z,56.80
2022-09-24T11:41:28.012Z,56.80
2022-09-24T11:42:49.169Z,56.90
2022-09-24T11:44:22.110Z,56.90
2022-09-24T11:45:27.652Z,57.00
2022-09-24T11:47:16.519Z,56.90
2022-09-24T11:48:41.727Z,57.00
2022-09-24T11:50:11.155Z,56.90
2022-09-24T11:51:34.127Z,56.90
2022-09-24T11:52:44.730Z,57.10
2022-09-24T11:54:03.860Z,57.00
2022-09-24T11:55:11.178Z,57.00
2022-09-24T11:56:22.399Z,57.00
2022-09-24T11:57:39.516Z,57.00
2022-09-24T11:59:01.231Z,57.00
2022-09-24T12:00:14.140Z,57.00
2022-09-24T12:01:34.689Z,57.00
2022-09-24T12:03:01.204Z,57.00
2022-09-24T12:04:32.598Z,57.00
2022-09-24T12:05:46.575Z,57.10
2022-09-24T12:07:32.521Z,57.00
2022-09-24T12:09:14.150Z,57.20
2022-09-24T12:10:39.788Z,57.30
2022-09-24T12:11:56.385Z,57.10
2022-09-24T12:13:13.815Z,57.10
2022-09-24T12:14:30.078Z,57.30
2022-09-24T12:15:51.596Z,57.20
2022-09-24T12:17:02.041Z,57.20
2022-09-24T12:18:36.712Z,57.20
2022-09-24T12:20:01.480Z,57.30
2022-09-24T12:21:12.956Z,57.30
2022-09-24T12:22:18.402Z,57.20
2022-09-24T12:23:28.093Z,57.30
2022-09-24T12:24:40.519Z,57.30
2022-09-24T12:25:47.063Z,57.30
2022-09-24T12:26:51.781Z,57.30
2022-09-24T12:27:56.094Z,57.30
2022-09-24T12:29:35.495Z,57.30
2022-09-24T12:31:15.121Z,57.30
2022-09-24T12:32:55.910Z,57.30
2022-09-24T12:34:05.296Z,57.30
2022-09-24T12:35:23.870Z,57.30
2022-09-24T12:36:29.413Z,57.40
2022-09-24T12:37:38.670Z,57.30
2022-09-24T12:38:58.153Z,57.40
2022-09-24T12:40:22.413Z,57.30
2022-09-24T12:41:36.697Z,57.30
2022-09-24T12:42:44.926Z,57.40
2022-09-24T12:44:08.458Z,57.40
2022-09-24T12:45:22.628Z,57.40
2022-09-24T12:46:38.542Z,57.40
2022-09-24T12:47:49.331Z,57.40
2022-09-24T12:48:55.216Z,57.40
2022-09-24T12:50:02.392Z,57.40
2022-09-24T12:51:09.739Z,57.40
2022-09-24T12:52:25.879Z,57.40
2022-09-24T12:53:37.378Z,57.40
2022-09-24T12:54:40.080Z,57.40
2022-09-24T12:55:48.091Z,57.40
2022-09-24T12:56:52.282Z,57.40
2022-09-24T12:58:38.660Z,57.40
2022-09-24T12:59:53.771Z,57.40
2022-09-24T13:01:22.931Z,57.40
2022-09-24T13:02:47.171Z,57.60
2022-09-24T13:04:14.593Z,57.50
2022-09-24T13:05:30.269Z,57.50
2022-09-24T13:06:35.283Z,57.50
2022-09-24T13:07:42.781Z,57.50
2022-09-24T13:08:46.178Z,57.50
2022-09-24T13:09:49.226Z,57.50
2022-09-24T13:11:06.690Z,57.50
2022-09-24T13:12:15.370Z,57.50
2022-09-24T13:13:34.804Z,57.60
2022-09-24T13:14:37.454Z,57.60
2022-09-24T13:15:41.959Z,57.60
2022-09-24T13:16:55.728Z,57.60
2022-09-24T13:18:26.083Z,57.60
2022-09-24T13:19:41.353Z,57.60
2022-09-24T13:20:49.978Z,57.60
2022-09-24T13:23:36.888Z,57.60
2022-09-24T13:24:50.561Z,57.60
2022-09-24T13:26:07.941Z,57.60
2022-09-24T13:27:21.887Z,57.60
2022-09-24T13:28:38.453Z,57.60
2022-09-24T13:29:45.317Z,57.60
2022-09-24T13:31:17.983Z,57.70
2022-09-24T13:32:22.497Z,57.70
2022-09-24T13:33:31.097Z,57.70
2022-09-24T13:34:37.033Z,57.80
2022-09-24T13:36:02.591Z,57.80
2022-09-24T13:37:15.328Z,57.90
2022-09-24T13:38:38.116Z,57.70
2022-09-24T13:40:01.907Z,57.60
2022-09-24T13:41:15.096Z,57.70
2022-09-24T13:42:36.319Z,57.80
2022-09-24T13:43:45.253Z,57.80
2022-09-24T13:44:53.769Z,57.80
2022-09-24T13:45:59.285Z,57.90
2022-09-24T13:47:17.246Z,57.90
2022-09-24T13:48:38.347Z,57.80
2022-09-24T13:49:45.882Z,57.80
2022-09-24T13:50:53.563Z,57.80
2022-09-24T13:52:13.458Z,57.80
2022-09-24T13:53:40.157Z,58.00
2022-09-24T13:54:53.553Z,58.00
2022-09-24T13:56:01.423Z,57.90
2022-09-24T13:57:12.767Z,57.90
2022-09-24T13:58:35.713Z,58.00
2022-09-24T13:59:42.181Z,58.10
2022-09-24T14:00:46.496Z,58.00
2022-09-24T14:01:51.855Z,58.00
2022-09-24T14:03:00.930Z,58.00
2022-09-24T14:04:08.728Z,58.00
2022-09-24T14:05:17.534Z,58.00
2022-09-24T14:06:36.919Z,58.00
2022-09-24T14:07:44.517Z,58.00
2022-09-24T14:09:01.411Z,58.00
2022-09-24T14:10:14.479Z,58.10
2022-09-24T14:11:25.726Z,58.00
2022-09-24T14:12:58.789Z,58.10
2022-09-24T14:14:10.742Z,58.10
2022-09-24T14:15:17.520Z,58.00
2022-09-24T14:16:25.004Z,58.00
2022-09-24T14:18:01.300Z,58.00
2022-09-24T14:19:06.832Z,58.20
2022-09-24T14:20:16.266Z,58.10
2022-09-24T14:21:53.507Z,58.10
2022-09-24T14:22:59.587Z,58.10
2022-09-24T14:24:07.340Z,58.10
2022-09-24T14:25:33.375Z,58.10
2022-09-24T14:26:48.737Z,58.10
2022-09-24T14:27:52.340Z,58.10
2022-09-24T14:28:57.183Z,58.20
2022-09-24T14:30:17.832Z,58.10
2022-09-24T14:31:21.624Z,58.00
2022-09-24T14:32:33.099Z,58.10
2022-09-24T14:33:39.166Z,58.20
2022-09-24T14:34:46.270Z,58.20
2022-09-24T14:35:51.339Z,58.20
2022-09-24T14:36:58.514Z,58.10
2022-09-24T14:38:06.170Z,58.20
2022-09-24T14:39:14.967Z,58.10
2022-09-24T14:40:22.955Z,58.10
2022-09-24T14:41:30.670Z,58.20
2022-09-24T14:42:43.957Z,58.20
2022-09-24T14:44:11.809Z,58.10
2022-09-24T14:45:34.910Z,58.10
2022-09-24T14:46:49.730Z,58.10
2022-09-24T14:48:27.366Z,58.10
2022-09-24T14:49:44.344Z,58.20
2022-09-24T14:50:48.999Z,58.20
2022-09-24T14:52:01.202Z,58.10
2022-09-24T14:53:29.561Z,58.20
2022-09-24T14:54:41.305Z,58.10
2022-09-24T14:55:46.460Z,58.10
2022-09-24T14:56:49.843Z,58.10
2022-09-24T14:57:57.634Z,58.70
2022-09-24T14:59:02.340Z,58.10
2022-09-24T15:00:26.772Z,58.10
2022-09-24T15:01:33.512Z,58.20
2022-09-24T15:02:37.932Z,58.10
2022-09-24T15:03:56.314Z,58.10
2022-09-24T15:05:05.996Z,58.20
2022-09-24T15:06:14.591Z,58.10
2022-09-24T15:07:29.427Z,58.10
2022-09-24T15:08:33.694Z,58.10
2022-09-24T15:09:37.314Z,58.10
2022-09-24T15:10:40.026Z,58.10
2022-09-24T15:11:43.798Z,58.20
2022-09-24T15:12:47.022Z,58.10
2022-09-24T15:14:05.749Z,58.10
2022-09-24T15:15:19.590Z,58.10